Weather Data

Pearl Creek Farm: 8878 N Farm Road 75, Walnut Grove MO 65770

<== Previous Day (Thursday 25 Sep 2014) | Next Day (Saturday 27 Sep 2014) ==>

Summary Precipitation Data For Friday 26 September 2014

ElementValueUnits
Precipitation0"
Notes(none)
SourcePearl Creek Farm

Summary Temperature Data For Friday 26 September 2014

ElementValueUnits
High Temperature80 oF
Low Temperature59 oF
Average Temperature68 oF
High Humidity91 %
Low Humidity59 %
Average Humidity80 %
SourcePearl Creek Farm

Detail Temperature Data For Friday 26 September 2014

Date / TimeTemp (F)RH (%)Dew Pt (F)Report Date / TimeSource
2014-09-26 00:00:00 63 87 58.9 2014-11-02 13:41:02 Pearl Creek Farm
2014-09-26 00:30:00 62 87 58.1 2014-11-02 13:41:02 Pearl Creek Farm
2014-09-26 01:00:00 62 88 58.2 2014-11-02 13:41:02 Pearl Creek Farm
2014-09-26 01:30:00 61 88 57.3 2014-11-02 13:41:02 Pearl Creek Farm
2014-09-26 02:00:00 61 88 57.3 2014-11-02 13:41:02 Pearl Creek Farm
2014-09-26 02:30:00 61 89 57.6 2014-11-02 13:41:02 Pearl Creek Farm
2014-09-26 03:00:00 61 89 57.6 2014-11-02 13:41:02 Pearl Creek Farm
2014-09-26 03:30:00 61 89 57.6 2014-11-02 13:41:02 Pearl Creek Farm
2014-09-26 04:00:00 61 89 57.6 2014-11-02 13:41:02 Pearl Creek Farm
2014-09-26 04:30:00 61 89 57.7 2014-11-02 13:41:02 Pearl Creek Farm
2014-09-26 05:00:00 60 90 56.9 2014-11-02 13:41:02 Pearl Creek Farm
2014-09-26 05:30:00 60 89 56.8 2014-11-02 13:41:02 Pearl Creek Farm
2014-09-26 06:00:00 60 89 56.8 2014-11-02 13:41:02 Pearl Creek Farm
2014-09-26 06:30:00 59 89 55.8 2014-11-02 13:41:02 Pearl Creek Farm
2014-09-26 07:00:00 59 89 55.8 2014-11-02 13:41:02 Pearl Creek Farm
2014-09-26 07:30:00 59 90 55.9 2014-11-02 13:41:02 Pearl Creek Farm
2014-09-26 08:00:00 59 90 55.9 2014-11-02 13:41:02 Pearl Creek Farm
2014-09-26 08:30:00 59 91 56.2 2014-11-02 13:41:02 Pearl Creek Farm
2014-09-26 09:00:00 60 91 57.4 2014-11-02 13:41:02 Pearl Creek Farm
2014-09-26 09:30:00 62 91 59.3 2014-11-02 13:41:02 Pearl Creek Farm
2014-09-26 10:00:00 64 91 61.3 2014-11-02 13:41:02 Pearl Creek Farm
2014-09-26 10:30:00 67 87 63.0 2014-11-02 13:41:02 Pearl Creek Farm
2014-09-26 11:00:00 70 83 64.4 2014-11-02 13:41:02 Pearl Creek Farm
2014-09-26 11:30:00 72 76 63.8 2014-11-02 13:41:02 Pearl Creek Farm
2014-09-26 12:00:00 74 70 63.4 2014-11-02 13:41:02 Pearl Creek Farm
2014-09-26 12:30:00 75 71 64.8 2014-11-02 13:41:02 Pearl Creek Farm
2014-09-26 13:00:00 76 67 64.0 2014-11-02 13:41:02 Pearl Creek Farm
2014-09-26 13:30:00 77 66 64.8 2014-11-02 13:41:02 Pearl Creek Farm
2014-09-26 14:00:00 78 66 65.7 2014-11-02 13:41:02 Pearl Creek Farm
2014-09-26 14:30:00 79 60 63.7 2014-11-02 13:41:02 Pearl Creek Farm
2014-09-26 15:00:00 79 60 63.7 2014-11-02 13:41:02 Pearl Creek Farm
2014-09-26 15:30:00 79 61 64.4 2014-11-02 13:41:02 Pearl Creek Farm
2014-09-26 16:00:00 80 59 64.4 2014-11-02 13:41:02 Pearl Creek Farm
2014-09-26 16:30:00 80 62 65.6 2014-11-02 13:41:02 Pearl Creek Farm
2014-09-26 17:00:00 80 60 64.9 2014-11-02 13:41:02 Pearl Creek Farm
2014-09-26 17:30:00 78 66 65.7 2014-11-02 13:41:02 Pearl Creek Farm
2014-09-26 18:00:00 77 68 65.6 2014-11-02 13:41:02 Pearl Creek Farm
2014-09-26 18:30:00 76 69 65.1 2014-11-02 13:41:02 Pearl Creek Farm
2014-09-26 19:00:00 74 73 64.8 2014-11-02 13:41:02 Pearl Creek Farm
2014-09-26 19:30:00 72 76 64.0 2014-11-02 13:41:02 Pearl Creek Farm
2014-09-26 20:00:00 70 76 62.1 2014-11-02 13:41:02 Pearl Creek Farm
2014-09-26 20:30:00 68 81 61.8 2014-11-02 13:41:02 Pearl Creek Farm
2014-09-26 21:00:00 66 81 59.8 2014-11-02 13:41:02 Pearl Creek Farm
2014-09-26 21:30:00 65 84 59.9 2014-11-02 13:41:02 Pearl Creek Farm
2014-09-26 22:00:00 65 84 60.0 2014-11-02 13:41:02 Pearl Creek Farm
2014-09-26 22:30:00 64 85 59.4 2014-11-02 13:41:02 Pearl Creek Farm
2014-09-26 23:00:00 63 85 58.4 2014-11-02 13:41:02 Pearl Creek Farm
2014-09-26 23:30:00 63 86 58.6 2014-11-02 13:41:02 Pearl Creek Farm

A total of 48 rows are displayed.